Terminal Aerodrome Forecast
Issued by NWS Cleveland, OH

Home | Current Version | Previous Version | Graphics & Text | Print | Product List | Glossary Off
Versions: 1 2 3 4 5 6 7 8 9 10 11 12 13 14 15 16

724
FTUS41 KCLE 270520
TAFMFD
TAF
KMFD 270520Z 2706/2806 20008KT P6SM SCT080
     FM270800 20008KT P6SM OVC070
     FM271100 18008KT P6SM BKN035 OVC060
     FM271900 18008KT P6SM VCSH BKN030 OVC050
     FM280000 16005KT P6SM VCSH BKN015 OVC020=

USA.gov is the U.S. government's official web portal to all federal, state and local government web resources and services.